sensor_id;sensor_type;location;lat;lon;timestamp;temperature;humidity
45785;DHT22;31489;51.404;5.474;2024-03-22T00:01:46;15.40;76.40
45785;DHT22;31489;51.404;5.474;2024-03-22T00:04:13;15.40;76.50
45785;DHT22;31489;51.404;5.474;2024-03-22T00:06:42;15.40;76.70
45785;DHT22;31489;51.404;5.474;2024-03-22T00:09:09;15.40;76.70
45785;DHT22;31489;51.404;5.474;2024-03-22T00:11:35;15.50;76.80
45785;DHT22;31489;51.404;5.474;2024-03-22T00:14:01;15.50;76.80
45785;DHT22;31489;51.404;5.474;2024-03-22T00:16:27;15.50;76.90
45785;DHT22;31489;51.404;5.474;2024-03-22T00:18:53;15.50;77.00
45785;DHT22;31489;51.404;5.474;2024-03-22T00:21:19;15.50;77.00
45785;DHT22;31489;51.404;5.474;2024-03-22T00:23:45;15.50;77.00
45785;DHT22;31489;51.404;5.474;2024-03-22T00:26:11;15.50;77.10
45785;DHT22;31489;51.404;5.474;2024-03-22T00:28:36;15.50;77.10
45785;DHT22;31489;51.404;5.474;2024-03-22T00:31:02;15.50;77.30
45785;DHT22;31489;51.404;5.474;2024-03-22T00:33:28;15.50;77.30
45785;DHT22;31489;51.404;5.474;2024-03-22T00:35:53;15.50;77.40
45785;DHT22;31489;51.404;5.474;2024-03-22T00:38:19;15.50;77.40
45785;DHT22;31489;51.404;5.474;2024-03-22T00:40:45;15.50;77.50
45785;DHT22;31489;51.404;5.474;2024-03-22T00:43:10;15.50;77.50
45785;DHT22;31489;51.404;5.474;2024-03-22T00:45:36;15.60;77.50
45785;DHT22;31489;51.404;5.474;2024-03-22T00:48:02;15.60;77.60
45785;DHT22;31489;51.404;5.474;2024-03-22T00:50:27;15.60;77.60
45785;DHT22;31489;51.404;5.474;2024-03-22T00:52:54;15.60;77.60
45785;DHT22;31489;51.404;5.474;2024-03-22T00:55:23;15.60;77.60
45785;DHT22;31489;51.404;5.474;2024-03-22T00:57:49;15.60;77.60
45785;DHT22;31489;51.404;5.474;2024-03-22T01:00:15;15.60;77.60
45785;DHT22;31489;51.404;5.474;2024-03-22T01:02:41;15.60;77.70
45785;DHT22;31489;51.404;5.474;2024-03-22T01:05:07;15.60;77.80
45785;DHT22;31489;51.404;5.474;2024-03-22T01:07:33;15.70;77.90
45785;DHT22;31489;51.404;5.474;2024-03-22T01:09:59;15.70;77.90
45785;DHT22;31489;51.404;5.474;2024-03-22T01:12:25;15.70;77.90
45785;DHT22;31489;51.404;5.474;2024-03-22T01:14:51;15.70;77.90
45785;DHT22;31489;51.404;5.474;2024-03-22T01:17:16;15.70;77.90
45785;DHT22;31489;51.404;5.474;2024-03-22T01:19:42;15.70;78.00
45785;DHT22;31489;51.404;5.474;2024-03-22T01:22:07;15.70;77.90
45785;DHT22;31489;51.404;5.474;2024-03-22T01:24:33;15.70;77.90
45785;DHT22;31489;51.404;5.474;2024-03-22T01:26:59;15.70;78.00
45785;DHT22;31489;51.404;5.474;2024-03-22T01:29:24;15.70;78.00
45785;DHT22;31489;51.404;5.474;2024-03-22T01:31:50;15.70;78.00
45785;DHT22;31489;51.404;5.474;2024-03-22T01:34:15;15.70;78.00
45785;DHT22;31489;51.404;5.474;2024-03-22T01:36:41;15.70;78.00
45785;DHT22;31489;51.404;5.474;2024-03-22T01:39:07;15.70;78.00
45785;DHT22;31489;51.404;5.474;2024-03-22T01:41:32;15.70;78.00
45785;DHT22;31489;51.404;5.474;2024-03-22T01:43:58;15.70;77.80
45785;DHT22;31489;51.404;5.474;2024-03-22T01:46:24;15.70;78.00
45785;DHT22;31489;51.404;5.474;2024-03-22T01:48:50;15.70;78.00
45785;DHT22;31489;51.404;5.474;2024-03-22T01:51:17;15.80;78.00
45785;DHT22;31489;51.404;5.474;2024-03-22T01:53:43;15.80;78.00
45785;DHT22;31489;51.404;5.474;2024-03-22T01:56:10;15.80;78.10
45785;DHT22;31489;51.404;5.474;2024-03-22T01:58:36;15.80;78.00
45785;DHT22;31489;51.404;5.474;2024-03-22T02:01:01;15.80;77.90
45785;DHT22;31489;51.404;5.474;2024-03-22T02:03:27;15.80;77.90
45785;DHT22;31489;51.404;5.474;2024-03-22T02:05:53;15.80;78.00
45785;DHT22;31489;51.404;5.474;2024-03-22T02:08:19;15.80;78.00
45785;DHT22;31489;51.404;5.474;2024-03-22T02:10:45;15.80;77.80
45785;DHT22;31489;51.404;5.474;2024-03-22T02:13:10;15.80;77.80
45785;DHT22;31489;51.404;5.474;2024-03-22T02:15:36;15.80;77.80
45785;DHT22;31489;51.404;5.474;2024-03-22T02:18:02;15.70;77.70
45785;DHT22;31489;51.404;5.474;2024-03-22T02:20:28;15.70;77.70
45785;DHT22;31489;51.404;5.474;2024-03-22T02:22:54;15.70;77.80
45785;DHT22;31489;51.404;5.474;2024-03-22T02:25:20;15.70;77.70
45785;DHT22;31489;51.404;5.474;2024-03-22T02:27:45;15.70;77.60
45785;DHT22;31489;51.404;5.474;2024-03-22T02:30:16;15.60;77.60
45785;DHT22;31489;51.404;5.474;2024-03-22T02:32:41;15.60;77.60
45785;DHT22;31489;51.404;5.474;2024-03-22T02:35:07;15.60;77.60
45785;DHT22;31489;51.404;5.474;2024-03-22T02:37:33;15.60;77.60
45785;DHT22;31489;51.404;5.474;2024-03-22T02:39:59;15.60;77.60
45785;DHT22;31489;51.404;5.474;2024-03-22T02:42:24;15.60;77.60
45785;DHT22;31489;51.404;5.474;2024-03-22T02:44:50;15.60;77.60
45785;DHT22;31489;51.404;5.474;2024-03-22T02:47:15;15.60;77.60
45785;DHT22;31489;51.404;5.474;2024-03-22T02:49:41;15.60;77.70
45785;DHT22;31489;51.404;5.474;2024-03-22T02:52:07;15.50;77.50
45785;DHT22;31489;51.404;5.474;2024-03-22T02:54:32;15.60;77.60
45785;DHT22;31489;51.404;5.474;2024-03-22T02:56:58;15.60;77.70
45785;DHT22;31489;51.404;5.474;2024-03-22T02:59:27;15.50;77.60
45785;DHT22;31489;51.404;5.474;2024-03-22T03:01:53;15.50;77.80
45785;DHT22;31489;51.404;5.474;2024-03-22T03:04:19;15.50;77.60
45785;DHT22;31489;51.404;5.474;2024-03-22T03:06:44;15.60;77.60
45785;DHT22;31489;51.404;5.474;2024-03-22T03:09:13;15.60;77.60
45785;DHT22;31489;51.404;5.474;2024-03-22T03:11:39;15.60;77.50
45785;DHT22;31489;51.404;5.474;2024-03-22T03:14:05;15.60;77.40
45785;DHT22;31489;51.404;5.474;2024-03-22T03:16:31;15.60;77.30
45785;DHT22;31489;51.404;5.474;2024-03-22T03:18:56;15.50;77.30
45785;DHT22;31489;51.404;5.474;2024-03-22T03:21:22;15.50;77.30
45785;DHT22;31489;51.404;5.474;2024-03-22T03:23:48;15.60;77.30
45785;DHT22;31489;51.404;5.474;2024-03-22T03:26:13;15.50;77.10
45785;DHT22;31489;51.404;5.474;2024-03-22T03:28:39;15.50;77.10
45785;DHT22;31489;51.404;5.474;2024-03-22T03:31:04;15.50;77.20
45785;DHT22;31489;51.404;5.474;2024-03-22T03:33:30;15.50;77.20
45785;DHT22;31489;51.404;5.474;2024-03-22T03:35:56;15.50;77.20
45785;DHT22;31489;51.404;5.474;2024-03-22T03:38:22;15.50;77.10
45785;DHT22;31489;51.404;5.474;2024-03-22T03:40:48;15.50;77.00
45785;DHT22;31489;51.404;5.474;2024-03-22T03:43:13;15.50;77.00
45785;DHT22;31489;51.404;5.474;2024-03-22T03:45:39;15.50;77.00
45785;DHT22;31489;51.404;5.474;2024-03-22T03:48:05;15.40;76.90
45785;DHT22;31489;51.404;5.474;2024-03-22T03:50:31;15.40;76.90
45785;DHT22;31489;51.404;5.474;2024-03-22T03:52:56;15.40;76.90
45785;DHT22;31489;51.404;5.474;2024-03-22T03:55:22;15.40;77.00
45785;DHT22;31489;51.404;5.474;2024-03-22T03:57:50;15.40;77.00
45785;DHT22;31489;51.404;5.474;2024-03-22T04:00:16;15.30;77.00
45785;DHT22;31489;51.404;5.474;2024-03-22T04:02:41;15.30;77.00
45785;DHT22;31489;51.404;5.474;2024-03-22T04:05:07;15.30;77.00
45785;DHT22;31489;51.404;5.474;2024-03-22T04:07:33;15.30;77.10
45785;DHT22;31489;51.404;5.474;2024-03-22T04:09:59;15.30;77.10
45785;DHT22;31489;51.404;5.474;2024-03-22T04:12:26;15.20;77.10
45785;DHT22;31489;51.404;5.474;2024-03-22T04:14:52;15.30;77.80
45785;DHT22;31489;51.404;5.474;2024-03-22T04:17:18;15.20;77.20
45785;DHT22;31489;51.404;5.474;2024-03-22T04:19:44;15.20;77.20
45785;DHT22;31489;51.404;5.474;2024-03-22T04:22:09;15.20;77.30
45785;DHT22;31489;51.404;5.474;2024-03-22T04:24:35;15.20;77.30
45785;DHT22;31489;51.404;5.474;2024-03-22T04:27:00;15.20;77.40
45785;DHT22;31489;51.404;5.474;2024-03-22T04:29:26;15.20;77.30
45785;DHT22;31489;51.404;5.474;2024-03-22T04:31:52;15.20;77.30
45785;DHT22;31489;51.404;5.474;2024-03-22T04:34:17;15.20;77.30
45785;DHT22;31489;51.404;5.474;2024-03-22T04:36:43;15.10;77.30
45785;DHT22;31489;51.404;5.474;2024-03-22T04:39:09;15.10;77.20
45785;DHT22;31489;51.404;5.474;2024-03-22T04:41:35;15.20;77.30
45785;DHT22;31489;51.404;5.474;2024-03-22T04:44:02;15.10;77.30
45785;DHT22;31489;51.404;5.474;2024-03-22T04:46:27;15.20;77.40
45785;DHT22;31489;51.404;5.474;2024-03-22T04:48:53;15.10;77.20
45785;DHT22;31489;51.404;5.474;2024-03-22T04:51:18;15.10;77.20
45785;DHT22;31489;51.404;5.474;2024-03-22T04:53:47;15.10;77.20
45785;DHT22;31489;51.404;5.474;2024-03-22T04:56:12;15.10;77.30
45785;DHT22;31489;51.404;5.474;2024-03-22T04:58:38;15.10;77.30
45785;DHT22;31489;51.404;5.474;2024-03-22T05:01:04;15.10;77.30
45785;DHT22;31489;51.404;5.474;2024-03-22T05:03:29;15.10;77.20
45785;DHT22;31489;51.404;5.474;2024-03-22T05:05:56;15.10;77.30
45785;DHT22;31489;51.404;5.474;2024-03-22T05:08:22;15.10;77.20
45785;DHT22;31489;51.404;5.474;2024-03-22T05:10:48;15.00;77.10
45785;DHT22;31489;51.404;5.474;2024-03-22T05:13:14;15.10;77.20
45785;DHT22;31489;51.404;5.474;2024-03-22T05:15:39;15.00;77.20
45785;DHT22;31489;51.404;5.474;2024-03-22T05:18:05;15.00;77.20
45785;DHT22;31489;51.404;5.474;2024-03-22T05:20:31;15.00;77.20
45785;DHT22;31489;51.404;5.474;2024-03-22T05:22:56;15.00;77.20
45785;DHT22;31489;51.404;5.474;2024-03-22T05:25:22;14.90;77.10
45785;DHT22;31489;51.404;5.474;2024-03-22T05:27:47;14.90;77.20
45785;DHT22;31489;51.404;5.474;2024-03-22T05:30:13;14.90;77.20
45785;DHT22;31489;51.404;5.474;2024-03-22T05:32:42;15.00;77.30
45785;DHT22;31489;51.404;5.474;2024-03-22T05:35:08;14.90;77.20
45785;DHT22;31489;51.404;5.474;2024-03-22T05:37:34;14.90;77.10
45785;DHT22;31489;51.404;5.474;2024-03-22T05:40:00;14.90;77.00
45785;DHT22;31489;51.404;5.474;2024-03-22T05:42:26;14.90;77.60
45785;DHT22;31489;51.404;5.474;2024-03-22T05:44:52;14.90;77.00
45785;DHT22;31489;51.404;5.474;2024-03-22T05:47:18;14.90;77.00
45785;DHT22;31489;51.404;5.474;2024-03-22T05:49:44;14.90;77.00
45785;DHT22;31489;51.404;5.474;2024-03-22T05:52:10;14.80;77.00
45785;DHT22;31489;51.404;5.474;2024-03-22T05:54:37;14.80;77.00
45785;DHT22;31489;51.404;5.474;2024-03-22T05:57:03;14.80;77.10
45785;DHT22;31489;51.404;5.474;2024-03-22T05:59:30;14.80;77.00
45785;DHT22;31489;51.404;5.474;2024-03-22T06:01:56;14.80;77.00
45785;DHT22;31489;51.404;5.474;2024-03-22T06:04:21;14.80;77.00
45785;DHT22;31489;51.404;5.474;2024-03-22T06:06:48;14.80;77.00
45785;DHT22;31489;51.404;5.474;2024-03-22T06:09:15;14.80;77.10
45785;DHT22;31489;51.404;5.474;2024-03-22T06:11:51;14.70;77.00
45785;DHT22;31489;51.404;5.474;2024-03-22T06:14:17;14.70;77.00
45785;DHT22;31489;51.404;5.474;2024-03-22T06:16:43;14.70;77.10
45785;DHT22;31489;51.404;5.474;2024-03-22T06:19:09;14.80;77.20
45785;DHT22;31489;51.404;5.474;2024-03-22T06:21:34;14.80;77.20
45785;DHT22;31489;51.404;5.474;2024-03-22T06:24:00;14.70;77.10
45785;DHT22;31489;51.404;5.474;2024-03-22T06:26:26;14.70;77.00
45785;DHT22;31489;51.404;5.474;2024-03-22T06:28:51;14.80;77.10
45785;DHT22;31489;51.404;5.474;2024-03-22T06:31:17;14.80;77.10
45785;DHT22;31489;51.404;5.474;2024-03-22T06:33:43;14.70;77.00
45785;DHT22;31489;51.404;5.474;2024-03-22T06:36:08;14.80;77.10
45785;DHT22;31489;51.404;5.474;2024-03-22T06:38:34;14.80;77.00
45785;DHT22;31489;51.404;5.474;2024-03-22T06:40:59;14.80;77.00
45785;DHT22;31489;51.404;5.474;2024-03-22T06:43:25;14.80;77.10
45785;DHT22;31489;51.404;5.474;2024-03-22T06:45:51;14.70;77.50
45785;DHT22;31489;51.404;5.474;2024-03-22T06:48:17;14.80;77.00
45785;DHT22;31489;51.404;5.474;2024-03-22T06:50:42;14.80;77.10
45785;DHT22;31489;51.404;5.474;2024-03-22T06:53:08;14.80;77.10
45785;DHT22;31489;51.404;5.474;2024-03-22T06:55:36;14.80;77.20
45785;DHT22;31489;51.404;5.474;2024-03-22T06:58:01;14.80;77.10
45785;DHT22;31489;51.404;5.474;2024-03-22T07:00:27;14.80;77.00
45785;DHT22;31489;51.404;5.474;2024-03-22T07:02:53;14.80;77.00
45785;DHT22;31489;51.404;5.474;2024-03-22T07:05:21;14.80;77.00
45785;DHT22;31489;51.404;5.474;2024-03-22T07:07:47;14.80;77.10
45785;DHT22;31489;51.404;5.474;2024-03-22T07:10:12;14.80;77.00
45785;DHT22;31489;51.404;5.474;2024-03-22T07:12:38;14.90;77.10
45785;DHT22;31489;51.404;5.474;2024-03-22T07:15:04;14.80;77.00
45785;DHT22;31489;51.404;5.474;2024-03-22T07:17:30;14.80;76.90
45785;DHT22;31489;51.404;5.474;2024-03-22T07:19:56;14.90;76.90
45785;DHT22;31489;51.404;5.474;2024-03-22T07:22:22;14.80;76.80
45785;DHT22;31489;51.404;5.474;2024-03-22T07:24:48;14.80;76.70
45785;DHT22;31489;51.404;5.474;2024-03-22T07:27:14;14.90;76.80
45785;DHT22;31489;51.404;5.474;2024-03-22T07:29:41;14.80;76.70
45785;DHT22;31489;51.404;5.474;2024-03-22T07:32:07;14.80;76.80
45785;DHT22;31489;51.404;5.474;2024-03-22T07:34:32;14.80;76.80
45785;DHT22;31489;51.404;5.474;2024-03-22T07:36:58;14.80;76.90
45785;DHT22;31489;51.404;5.474;2024-03-22T07:39:24;14.80;77.00
45785;DHT22;31489;51.404;5.474;2024-03-22T07:41:50;14.90;77.00
45785;DHT22;31489;51.404;5.474;2024-03-22T07:44:15;14.80;76.80
45785;DHT22;31489;51.404;5.474;2024-03-22T07:46:44;14.90;77.00
45785;DHT22;31489;51.404;5.474;2024-03-22T07:49:11;14.90;76.60
45785;DHT22;31489;51.404;5.474;2024-03-22T07:51:36;15.00;76.50
45785;DHT22;31489;51.404;5.474;2024-03-22T07:54:02;14.90;76.30
45785;DHT22;31489;51.404;5.474;2024-03-22T07:56:28;15.00;76.30
45785;DHT22;31489;51.404;5.474;2024-03-22T07:58:53;15.00;76.30
45785;DHT22;31489;51.404;5.474;2024-03-22T08:01:19;15.00;76.20
45785;DHT22;31489;51.404;5.474;2024-03-22T08:03:45;15.00;76.10
45785;DHT22;31489;51.404;5.474;2024-03-22T08:06:10;15.00;76.00
45785;DHT22;31489;51.404;5.474;2024-03-22T08:08:36;15.10;76.00
45785;DHT22;31489;51.404;5.474;2024-03-22T08:11:01;15.10;75.90
45785;DHT22;31489;51.404;5.474;2024-03-22T08:13:27;15.10;75.90
45785;DHT22;31489;51.404;5.474;2024-03-22T08:15:52;15.20;76.00
45785;DHT22;31489;51.404;5.474;2024-03-22T08:18:19;15.20;75.70
45785;DHT22;31489;51.404;5.474;2024-03-22T08:20:44;15.20;75.40
45785;DHT22;31489;51.404;5.474;2024-03-22T08:23:10;15.30;75.40
45785;DHT22;31489;51.404;5.474;2024-03-22T08:25:35;15.30;75.30
45785;DHT22;31489;51.404;5.474;2024-03-22T08:28:02;15.30;75.20
45785;DHT22;31489;51.404;5.474;2024-03-22T08:30:28;15.30;75.10
45785;DHT22;31489;51.404;5.474;2024-03-22T08:32:53;15.40;74.90
45785;DHT22;31489;51.404;5.474;2024-03-22T08:35:19;15.40;74.80
45785;DHT22;31489;51.404;5.474;2024-03-22T08:37:44;15.40;74.70
45785;DHT22;31489;51.404;5.474;2024-03-22T08:40:11;15.40;74.40
45785;DHT22;31489;51.404;5.474;2024-03-22T08:42:37;15.40;74.30
45785;DHT22;31489;51.404;5.474;2024-03-22T08:45:04;15.40;74.30
45785;DHT22;31489;51.404;5.474;2024-03-22T08:47:30;15.50;74.20
45785;DHT22;31489;51.404;5.474;2024-03-22T08:49:56;15.50;74.20
45785;DHT22;31489;51.404;5.474;2024-03-22T08:52:23;15.50;74.10
45785;DHT22;31489;51.404;5.474;2024-03-22T08:54:50;15.40;73.70
45785;DHT22;31489;51.404;5.474;2024-03-22T08:57:16;15.40;73.60
45785;DHT22;31489;51.404;5.474;2024-03-22T08:59:41;15.40;73.60
45785;DHT22;31489;51.404;5.474;2024-03-22T09:02:07;15.40;73.60
45785;DHT22;31489;51.404;5.474;2024-03-22T09:04:32;15.40;73.60
45785;DHT22;31489;51.404;5.474;2024-03-22T09:06:58;15.40;73.80
45785;DHT22;31489;51.404;5.474;2024-03-22T09:09:24;15.30;73.90
45785;DHT22;31489;51.404;5.474;2024-03-22T09:11:49;15.40;73.90
45785;DHT22;31489;51.404;5.474;2024-03-22T09:14:15;15.40;73.70
45785;DHT22;31489;51.404;5.474;2024-03-22T09:16:40;15.40;74.10
45785;DHT22;31489;51.404;5.474;2024-03-22T09:19:06;15.40;73.50
45785;DHT22;31489;51.404;5.474;2024-03-22T09:21:31;15.40;73.50
45785;DHT22;31489;51.404;5.474;2024-03-22T09:23:57;15.40;73.30
45785;DHT22;31489;51.404;5.474;2024-03-22T09:26:23;15.40;73.20
45785;DHT22;31489;51.404;5.474;2024-03-22T09:28:49;15.40;73.10
45785;DHT22;31489;51.404;5.474;2024-03-22T09:31:16;15.40;73.10
45785;DHT22;31489;51.404;5.474;2024-03-22T09:33:42;15.40;73.20
45785;DHT22;31489;51.404;5.474;2024-03-22T09:36:08;15.40;73.20
45785;DHT22;31489;51.404;5.474;2024-03-22T09:38:33;15.40;73.20
45785;DHT22;31489;51.404;5.474;2024-03-22T09:40:59;15.40;73.20
45785;DHT22;31489;51.404;5.474;2024-03-22T09:43:27;15.40;73.10
45785;DHT22;31489;51.404;5.474;2024-03-22T09:45:54;15.40;73.00
45785;DHT22;31489;51.404;5.474;2024-03-22T09:48:20;15.40;72.80
45785;DHT22;31489;51.404;5.474;2024-03-22T09:50:47;15.50;73.00
45785;DHT22;31489;51.404;5.474;2024-03-22T09:53:19;15.50;73.10
45785;DHT22;31489;51.404;5.474;2024-03-22T09:55:47;15.50;73.00
45785;DHT22;31489;51.404;5.474;2024-03-22T09:58:13;15.60;73.10
45785;DHT22;31489;51.404;5.474;2024-03-22T10:00:38;15.60;73.20
45785;DHT22;31489;51.404;5.474;2024-03-22T10:03:04;15.60;73.00
45785;DHT22;31489;51.404;5.474;2024-03-22T10:05:31;15.70;72.90
45785;DHT22;31489;51.404;5.474;2024-03-22T10:07:56;15.70;72.80
45785;DHT22;31489;51.404;5.474;2024-03-22T10:10:22;15.70;72.70
45785;DHT22;31489;51.404;5.474;2024-03-22T10:12:48;15.70;72.60
45785;DHT22;31489;51.404;5.474;2024-03-22T10:15:13;15.70;72.70
45785;DHT22;31489;51.404;5.474;2024-03-22T10:17:39;15.80;72.60
45785;DHT22;31489;51.404;5.474;2024-03-22T10:20:07;15.80;72.40
45785;DHT22;31489;51.404;5.474;2024-03-22T10:22:50;15.70;72.30
45785;DHT22;31489;51.404;5.474;2024-03-22T10:25:20;15.70;72.10
45785;DHT22;31489;51.404;5.474;2024-03-22T10:27:45;15.70;72.20
45785;DHT22;31489;51.404;5.474;2024-03-22T10:30:12;15.70;72.20
45785;DHT22;31489;51.404;5.474;2024-03-22T10:32:40;15.60;72.10
45785;DHT22;31489;51.404;5.474;2024-03-22T10:35:07;15.60;72.10
45785;DHT22;31489;51.404;5.474;2024-03-22T10:37:35;15.60;72.20
45785;DHT22;31489;51.404;5.474;2024-03-22T10:40:04;15.60;72.30
45785;DHT22;31489;51.404;5.474;2024-03-22T10:42:38;15.60;72.20
45785;DHT22;31489;51.404;5.474;2024-03-22T10:45:04;15.60;72.30
45785;DHT22;31489;51.404;5.474;2024-03-22T10:47:32;15.50;72.20
45785;DHT22;31489;51.404;5.474;2024-03-22T10:52:34;15.50;72.20
45785;DHT22;31489;51.404;5.474;2024-03-22T10:55:03;15.50;72.20
45785;DHT22;31489;51.404;5.474;2024-03-22T10:57:30;15.50;72.40
45785;DHT22;31489;51.404;5.474;2024-03-22T10:59:56;15.50;72.40
45785;DHT22;31489;51.404;5.474;2024-03-22T11:02:24;15.50;72.40
45785;DHT22;31489;51.404;5.474;2024-03-22T11:04:59;15.50;72.40
45785;DHT22;31489;51.404;5.474;2024-03-22T11:07:29;15.50;72.40
45785;DHT22;31489;51.404;5.474;2024-03-22T11:10:01;15.50;72.30
45785;DHT22;31489;51.404;5.474;2024-03-22T11:12:31;15.50;72.30
45785;DHT22;31489;51.404;5.474;2024-03-22T11:14:59;15.50;72.40
45785;DHT22;31489;51.404;5.474;2024-03-22T11:17:24;15.50;72.50
45785;DHT22;31489;51.404;5.474;2024-03-22T11:19:51;15.40;72.40
45785;DHT22;31489;51.404;5.474;2024-03-22T11:22:17;15.40;72.60
45785;DHT22;31489;51.404;5.474;2024-03-22T11:24:43;15.40;72.70
45785;DHT22;31489;51.404;5.474;2024-03-22T11:27:10;15.40;72.80
45785;DHT22;31489;51.404;5.474;2024-03-22T11:29:37;15.40;72.80
45785;DHT22;31489;51.404;5.474;2024-03-22T11:32:06;15.40;72.90
45785;DHT22;31489;51.404;5.474;2024-03-22T11:34:35;15.40;72.90
45785;DHT22;31489;51.404;5.474;2024-03-22T11:37:00;15.40;72.90
45785;DHT22;31489;51.404;5.474;2024-03-22T11:39:26;15.40;72.90
45785;DHT22;31489;51.404;5.474;2024-03-22T11:41:52;15.40;72.90
45785;DHT22;31489;51.404;5.474;2024-03-22T11:44:18;15.30;73.00
45785;DHT22;31489;51.404;5.474;2024-03-22T11:46:44;15.30;73.10
45785;DHT22;31489;51.404;5.474;2024-03-22T11:49:11;15.30;73.20
45785;DHT22;31489;51.404;5.474;2024-03-22T11:51:36;15.30;73.20
45785;DHT22;31489;51.404;5.474;2024-03-22T11:54:03;15.30;73.30
45785;DHT22;31489;51.404;5.474;2024-03-22T11:56:29;15.30;73.30
45785;DHT22;31489;51.404;5.474;2024-03-22T11:59:01;15.30;73.40
45785;DHT22;31489;51.404;5.474;2024-03-22T12:01:28;15.30;73.50
45785;DHT22;31489;51.404;5.474;2024-03-22T12:03:54;15.30;73.60
45785;DHT22;31489;51.404;5.474;2024-03-22T12:06:21;15.30;73.70
45785;DHT22;31489;51.404;5.474;2024-03-22T12:08:49;15.30;73.80
45785;DHT22;31489;51.404;5.474;2024-03-22T12:11:16;15.30;73.80
45785;DHT22;31489;51.404;5.474;2024-03-22T12:13:42;15.30;73.80
45785;DHT22;31489;51.404;5.474;2024-03-22T12:16:07;15.30;73.90
45785;DHT22;31489;51.404;5.474;2024-03-22T12:18:33;15.30;73.90
45785;DHT22;31489;51.404;5.474;2024-03-22T12:20:59;15.30;73.90
45785;DHT22;31489;51.404;5.474;2024-03-22T12:23:25;15.30;73.90
45785;DHT22;31489;51.404;5.474;2024-03-22T12:25:51;15.30;73.90
45785;DHT22;31489;51.404;5.474;2024-03-22T12:28:18;15.30;74.00
45785;DHT22;31489;51.404;5.474;2024-03-22T12:30:44;15.30;74.10
45785;DHT22;31489;51.404;5.474;2024-03-22T12:33:09;15.30;74.10
45785;DHT22;31489;51.404;5.474;2024-03-22T12:35:39;15.30;74.10
45785;DHT22;31489;51.404;5.474;2024-03-22T12:38:06;15.30;74.20
45785;DHT22;31489;51.404;5.474;2024-03-22T12:40:32;15.30;74.40
45785;DHT22;31489;51.404;5.474;2024-03-22T12:42:59;15.30;74.40
45785;DHT22;31489;51.404;5.474;2024-03-22T12:45:24;15.30;74.50
45785;DHT22;31489;51.404;5.474;2024-03-22T12:47:50;15.30;74.60
45785;DHT22;31489;51.404;5.474;2024-03-22T12:50:16;15.40;74.40
45785;DHT22;31489;51.404;5.474;2024-03-22T12:52:42;15.40;74.50
45785;DHT22;31489;51.404;5.474;2024-03-22T12:55:09;15.40;74.50
45785;DHT22;31489;51.404;5.474;2024-03-22T12:57:35;15.40;74.40
45785;DHT22;31489;51.404;5.474;2024-03-22T13:00:01;15.40;74.20
45785;DHT22;31489;51.404;5.474;2024-03-22T13:02:26;15.40;74.20
45785;DHT22;31489;51.404;5.474;2024-03-22T13:04:52;15.40;74.10
45785;DHT22;31489;51.404;5.474;2024-03-22T13:07:19;15.40;74.20
45785;DHT22;31489;51.404;5.474;2024-03-22T13:09:45;15.40;74.20
45785;DHT22;31489;51.404;5.474;2024-03-22T13:12:11;15.40;74.20
45785;DHT22;31489;51.404;5.474;2024-03-22T13:14:36;15.40;74.30
45785;DHT22;31489;51.404;5.474;2024-03-22T13:17:02;15.40;74.30
45785;DHT22;31489;51.404;5.474;2024-03-22T13:19:27;15.40;74.40
45785;DHT22;31489;51.404;5.474;2024-03-22T13:21:53;15.40;74.40
45785;DHT22;31489;51.404;5.474;2024-03-22T13:24:19;15.40;74.50
45785;DHT22;31489;51.404;5.474;2024-03-22T13:26:44;15.40;74.70
45785;DHT22;31489;51.404;5.474;2024-03-22T13:29:10;15.30;74.90
45785;DHT22;31489;51.404;5.474;2024-03-22T13:31:38;15.30;75.30
45785;DHT22;31489;51.404;5.474;2024-03-22T13:34:04;15.30;75.90
45785;DHT22;31489;51.404;5.474;2024-03-22T13:36:29;15.20;76.10
45785;DHT22;31489;51.404;5.474;2024-03-22T13:38:58;15.20;76.60
45785;DHT22;31489;51.404;5.474;2024-03-22T13:41:23;15.20;77.00
45785;DHT22;31489;51.404;5.474;2024-03-22T13:43:49;15.10;77.10
45785;DHT22;31489;51.404;5.474;2024-03-22T13:46:14;15.00;77.30
45785;DHT22;31489;51.404;5.474;2024-03-22T13:48:42;15.00;77.60
45785;DHT22;31489;51.404;5.474;2024-03-22T13:51:08;14.90;77.90
45785;DHT22;31489;51.404;5.474;2024-03-22T13:53:34;15.00;77.90
45785;DHT22;31489;51.404;5.474;2024-03-22T13:56:00;14.90;78.10
45785;DHT22;31489;51.404;5.474;2024-03-22T13:58:26;14.90;78.30
45785;DHT22;31489;51.404;5.474;2024-03-22T14:00:52;14.90;78.50
45785;DHT22;31489;51.404;5.474;2024-03-22T14:03:18;14.80;78.60
45785;DHT22;31489;51.404;5.474;2024-03-22T14:05:44;14.90;78.60
45785;DHT22;31489;51.404;5.474;2024-03-22T14:08:09;14.80;78.80
45785;DHT22;31489;51.404;5.474;2024-03-22T14:10:35;14.80;79.00
45785;DHT22;31489;51.404;5.474;2024-03-22T14:13:01;14.70;79.20
45785;DHT22;31489;51.404;5.474;2024-03-22T14:15:27;14.70;79.30
45785;DHT22;31489;51.404;5.474;2024-03-22T14:17:57;14.60;79.50
45785;DHT22;31489;51.404;5.474;2024-03-22T14:20:23;14.60;79.60
45785;DHT22;31489;51.404;5.474;2024-03-22T14:22:48;14.60;79.80
45785;DHT22;31489;51.404;5.474;2024-03-22T14:25:14;14.60;79.80
45785;DHT22;31489;51.404;5.474;2024-03-22T14:27:40;14.60;80.00
45785;DHT22;31489;51.404;5.474;2024-03-22T14:30:10;14.60;80.20
45785;DHT22;31489;51.404;5.474;2024-03-22T14:32:38;14.60;80.40
45785;DHT22;31489;51.404;5.474;2024-03-22T14:35:04;14.50;80.30
45785;DHT22;31489;51.404;5.474;2024-03-22T14:37:31;14.50;80.50
45785;DHT22;31489;51.404;5.474;2024-03-22T14:39:56;14.50;80.50
45785;DHT22;31489;51.404;5.474;2024-03-22T14:42:22;14.50;80.60
45785;DHT22;31489;51.404;5.474;2024-03-22T14:44:48;14.50;80.90
45785;DHT22;31489;51.404;5.474;2024-03-22T14:47:14;14.50;81.00
45785;DHT22;31489;51.404;5.474;2024-03-22T14:49:39;14.50;80.80
45785;DHT22;31489;51.404;5.474;2024-03-22T14:52:06;14.50;81.00
45785;DHT22;31489;51.404;5.474;2024-03-22T14:54:31;14.50;81.20
45785;DHT22;31489;51.404;5.474;2024-03-22T14:56:57;14.50;81.10
45785;DHT22;31489;51.404;5.474;2024-03-22T14:59:22;14.50;81.40
45785;DHT22;31489;51.404;5.474;2024-03-22T15:01:48;14.40;81.40
45785;DHT22;31489;51.404;5.474;2024-03-22T15:04:14;14.50;81.60
45785;DHT22;31489;51.404;5.474;2024-03-22T15:06:39;14.40;81.60
45785;DHT22;31489;51.404;5.474;2024-03-22T15:09:05;14.50;81.80
45785;DHT22;31489;51.404;5.474;2024-03-22T15:11:36;14.50;81.80
45785;DHT22;31489;51.404;5.474;2024-03-22T15:14:02;14.40;81.70
45785;DHT22;31489;51.404;5.474;2024-03-22T15:16:28;14.50;81.60
45785;DHT22;31489;51.404;5.474;2024-03-22T15:18:54;14.50;81.90
45785;DHT22;31489;51.404;5.474;2024-03-22T15:21:20;14.40;82.00
45785;DHT22;31489;51.404;5.474;2024-03-22T15:23:46;14.40;82.10
45785;DHT22;31489;51.404;5.474;2024-03-22T15:26:12;14.40;82.20